Stornoway — WDC7908 — position and weather

sailwx.info

Track history (hours):
 
Tides and Currents Weather Stations Pressure Air Temp Water Temp Dewpoint Dewpoint Depression Visibility Wind Speed Wind Dir Waves Ship Positions

Stornoway

Owner: Matthews, William, Bainbridge Island, WA. More information available from US FCC via Universal Licensing System and Coast Guard Vessel Documentation Center.

Last reported at 2014-Nov-11 22:14 UTC. Time now 2014-Nov-22 15:32 UTC.
Position N 47°43' W 122°32'.
Warning: this ship's position is 10 days out of date.

Length 13 m.

Type: Pleasure craft. MMSI: 367078810.

Date/timePositionNaut miles runAvg speedWind from/ knotsBaromVisibWave heightAir tempDewpointWater temp
2014-Nov-11 22:14N 47°43' W 122°32'0 9.0
2014-Nov-11 22:12N 47°43' W 122°31'5 7.6
2014-Nov-11 21:33N 47°41' W 122°24'0 3.6
2014-Nov-11 21:33N 47°41' W 122°24'0 0.0
2014-Nov-11 20:30N 47°41' W 122°24'0 0.0
2014-Nov-11 20:27N 47°41' W 122°24'0 0.0
2014-Nov-11 19:33N 47°41' W 122°24'0 0.0
2014-Nov-11 19:12N 47°41' W 122°24'0 0.0
2014-Nov-11 18:30N 47°41' W 122°24'0 0.0
2014-Nov-11 18:27N 47°41' W 122°24'0 0.0
2014-Nov-11 17:27N 47°41' W 122°24'0 0.0
2014-Nov-11 17:27N 47°41' W 122°24'0 0.0
2014-Nov-11 16:30N 47°41' W 122°24'0 0.0
2014-Nov-11 16:27N 47°41' W 122°24'0 0.0
2014-Nov-11 15:33N 47°41' W 122°24'0 0.1
2014-Nov-11 15:27N 47°41' W 122°24'0 0.0
2014-Nov-11 14:34N 47°41' W 122°24'0 0.0
2014-Nov-11 14:21N 47°41' W 122°24'0 0.0
2014-Nov-11 13:34N 47°41' W 122°24'0 0.0
2014-Nov-11 13:21N 47°41' W 122°24'0 0.0
2014-Nov-11 12:34N 47°41' W 122°24'0 0.0
2014-Nov-11 12:21N 47°41' W 122°24'0 0.0
2014-Nov-11 11:31N 47°41' W 122°24'0 0.0
2014-Nov-11 11:21N 47°41' W 122°24'0 0.0
2014-Nov-11 10:34N 47°41' W 122°24'0 0.0
2014-Nov-11 09:31N 47°41' W 122°24'0 0.0
2014-Nov-11 08:31N 47°41' W 122°24'0 0.0
2014-Nov-11 07:13N 47°41' W 122°24'0 0.0
2014-Nov-11 06:25N 47°41' W 122°24'0 0.0
2014-Nov-11 02:42N 47°41' W 122°24'0 0.0
2014-Nov-11 02:31N 47°41' W 122°24'0 0.0
2014-Nov-11 02:27N 47°41' W 122°24'0 0.0
2014-Nov-11 01:31N 47°41' W 122°24'0 0.0
2014-Nov-11 01:21N 47°41' W 122°24'0 0.0
2014-Nov-11 00:31N 47°41' W 122°24'0 0.0
2014-Nov-11 00:21N 47°41' W 122°24'0 0.0
2014-Nov-10 23:31N 47°41' W 122°24'0 0.0
2014-Nov-10 23:21N 47°41' W 122°24'0 0.0
2014-Nov-10 22:31N 47°41' W 122°24'0 0.0
2014-Nov-10 22:21N 47°41' W 122°24'0 0.0
2014-Nov-10 21:31N 47°41' W 122°24'0 0.0
2014-Nov-10 21:22N 47°41' W 122°24'0 0.0
2014-Nov-10 20:31N 47°41' W 122°24'0 0.0
2014-Nov-10 20:22N 47°41' W 122°24'6 7.2
2014-Nov-10 19:33N 47°35' W 122°28'1 8.2
2014-Nov-10 19:26N 47°35' W 122°28'2 2.2
2014-Nov-10 18:31N 47°33' W 122°29'0 0.0
2014-Nov-10 17:31N 47°33' W 122°29'0 0.0
2014-Nov-10 16:31N 47°33' W 122°29'0 0.0
2014-Nov-10 15:31N 47°33' W 122°29'0 0.0
2014-Nov-10 14:31N 47°33' W 122°29'0 0.0
2014-Nov-10 13:31N 47°33' W 122°29'0 0.0
2014-Nov-10 12:31N 47°33' W 122°29'0 0.0
2014-Nov-10 11:31N 47°33' W 122°29'0 0.0
2014-Nov-10 10:31N 47°33' W 122°29'0 0.0
2014-Nov-10 09:31N 47°33' W 122°29'0 0.0
2014-Nov-10 08:31N 47°33' W 122°29'0 0.0
2014-Nov-10 07:31N 47°33' W 122°29'0 0.0
2014-Nov-10 06:22N 47°33' W 122°29'0 0.0
2014-Nov-10 05:31N 47°33' W 122°29'0 0.0
2014-Nov-10 04:25N 47°33' W 122°29'0 0.0
2014-Nov-10 03:19N 47°33' W 122°29'0 0.0
2014-Nov-10 02:28N 47°33' W 122°29'0 0.0
2014-Nov-10 01:25N 47°33' W 122°29'0 0.0
2014-Nov-10 00:25N 47°33' W 122°29'0 0.0
2014-Nov-09 23:10N 47°33' W 122°29'0 0.0
2014-Nov-09 22:28N 47°33' W 122°29'4 3.9
2014-Nov-09 21:32N 47°29' W 122°30'9 8.2
2014-Nov-09 20:24N 47°20' W 122°30'4 4.7
2014-Nov-09 19:31N 47°24' W 122°28'0 0.0
2014-Nov-09 18:31N 47°24' W 122°28'0 0.0
2014-Nov-09 17:31N 47°24' W 122°28'0 0.0
2014-Nov-09 16:31N 47°24' W 122°28'0 0.0
2014-Nov-09 15:31N 47°24' W 122°28'0 0.0
2014-Nov-09 14:25N 47°24' W 122°28'0 0.0
2014-Nov-09 13:31N 47°24' W 122°28'0 0.0
2014-Nov-09 12:31N 47°24' W 122°28'0 0.0
2014-Nov-09 11:31N 47°24' W 122°28'0 0.0
2014-Nov-09 10:31N 47°24' W 122°28'0 0.0
2014-Nov-09 09:31N 47°24' W 122°28'0 0.0
2014-Nov-09 08:31N 47°24' W 122°28'0 0.0
2014-Nov-09 07:31N 47°24' W 122°28'0 0.0
2014-Nov-09 06:31N 47°24' W 122°28'0 0.0
2014-Nov-09 05:31N 47°24' W 122°28'0 0.0
2014-Nov-09 04:31N 47°24' W 122°28'0 0.0
2014-Nov-09 03:31N 47°24' W 122°28'0 0.0
2014-Nov-09 02:31N 47°24' W 122°28'0 0.0
2014-Nov-09 01:31N 47°24' W 122°28'0 0.0
2014-Nov-09 00:31N 47°24' W 122°28'0 0.0
2014-Nov-08 23:31N 47°24' W 122°28'0 0.0
2014-Nov-08 22:31N 47°24' W 122°28'0 0.0
2014-Nov-08 21:31N 47°24' W 122°28'0 0.0
2014-Nov-08 20:31N 47°24' W 122°28'0 0.0
2014-Nov-08 19:31N 47°24' W 122°28'0 0.0
2014-Nov-08 18:31N 47°24' W 122°28'0 0.0
2014-Nov-08 17:31N 47°24' W 122°28'0 0.0
2014-Nov-08 16:31N 47°24' W 122°28'0 0.0
2014-Nov-08 15:31N 47°24' W 122°28'0 0.0
2014-Nov-08 14:31N 47°24' W 122°28'0 0.0
2014-Nov-08 13:31N 47°24' W 122°28'0 0.0
2014-Nov-08 12:31N 47°24' W 122°28'0 0.0
2014-Nov-08 11:31N 47°24' W 122°28'0 0.0
2014-Nov-08 10:31N 47°24' W 122°28'0 0.0
2014-Nov-08 09:31N 47°24' W 122°28'0 0.0
2014-Nov-08 08:28N 47°24' W 122°28'0 0.0
2014-Nov-08 07:31N 47°24' W 122°28'0 0.0
2014-Nov-08 06:28N 47°24' W 122°28'0 0.0
2014-Nov-08 05:31N 47°24' W 122°28'0 0.0
2014-Nov-08 04:31N 47°24' W 122°28'0 0.0
2014-Nov-08 03:31N 47°24' W 122°28'0 0.0
2014-Nov-08 02:31N 47°24' W 122°28'0 0.0
2014-Nov-08 01:31N 47°24' W 122°28'0 0.0
2014-Nov-08 00:31N 47°24' W 122°28'0 0.0
2014-Nov-07 23:31N 47°24' W 122°28'0 0.0
2014-Nov-07 22:31N 47°24' W 122°28'0 0.0
2014-Nov-07 21:31N 47°24' W 122°28'4 3.8
2014-Nov-07 20:27N 47°21' W 122°32'8 8.3
2014-Nov-07 19:32N 47°28' W 122°31'5 4.6
2014-Nov-07 18:31N 47°33' W 122°29'0 0.0
2014-Nov-07 17:31N 47°33' W 122°29'0 0.1
2014-Nov-07 16:32N 47°33' W 122°29'6 7.9
2014-Nov-07 15:48N 47°38' W 122°27'2 7.8
2014-Nov-07 15:33N 47°40' W 122°26'0 0.0
2014-Nov-07 15:33N 47°40' W 122°26'  
Track history (hours):
 
Tides and Currents Weather Stations Pressure Air Temp Water Temp Dewpoint Dewpoint Depression Visibility Wind Speed Wind Dir Waves Ship Positions

Stornoway

Owner: Matthews, William, Bainbridge Island, WA. More information available from US FCC via Universal Licensing System and Coast Guard Vessel Documentation Center.

Last reported at 2014-Nov-11 22:14 UTC. Time now 2014-Nov-22 15:32 UTC.
Position N 47°43' W 122°32'.
Warning: this ship's position is 10 days out of date.

Length 13 m.

Type: Pleasure craft. MMSI: 367078810.

Date/timePositionNaut miles runAvg speedWind from/ knotsBaromVisibWave heightAir tempDewpointWater temp
2014-Nov-11 22:14N 47°43' W 122°32'0 9.0
2014-Nov-11 22:12N 47°43' W 122°31'5 7.6
2014-Nov-11 21:33N 47°41' W 122°24'0 3.6
2014-Nov-11 21:33N 47°41' W 122°24'0 0.0
2014-Nov-11 20:30N 47°41' W 122°24'0 0.0
2014-Nov-11 20:27N 47°41' W 122°24'0 0.0
2014-Nov-11 19:33N 47°41' W 122°24'0 0.0
2014-Nov-11 19:12N 47°41' W 122°24'0 0.0
2014-Nov-11 18:30N 47°41' W 122°24'0 0.0
2014-Nov-11 18:27N 47°41' W 122°24'0 0.0
2014-Nov-11 17:27N 47°41' W 122°24'0 0.0
2014-Nov-11 17:27N 47°41' W 122°24'0 0.0
2014-Nov-11 16:30N 47°41' W 122°24'0 0.0
2014-Nov-11 16:27N 47°41' W 122°24'0 0.0
2014-Nov-11 15:33N 47°41' W 122°24'0 0.1
2014-Nov-11 15:27N 47°41' W 122°24'0 0.0
2014-Nov-11 14:34N 47°41' W 122°24'0 0.0
2014-Nov-11 14:21N 47°41' W 122°24'0 0.0
2014-Nov-11 13:34N 47°41' W 122°24'0 0.0
2014-Nov-11 13:21N 47°41' W 122°24'0 0.0
2014-Nov-11 12:34N 47°41' W 122°24'0 0.0
2014-Nov-11 12:21N 47°41' W 122°24'0 0.0
2014-Nov-11 11:31N 47°41' W 122°24'0 0.0
2014-Nov-11 11:21N 47°41' W 122°24'0 0.0
2014-Nov-11 10:34N 47°41' W 122°24'0 0.0
2014-Nov-11 09:31N 47°41' W 122°24'0 0.0
2014-Nov-11 08:31N 47°41' W 122°24'0 0.0
2014-Nov-11 07:13N 47°41' W 122°24'0 0.0
2014-Nov-11 06:25N 47°41' W 122°24'0 0.0
2014-Nov-11 02:42N 47°41' W 122°24'0 0.0
2014-Nov-11 02:31N 47°41' W 122°24'0 0.0
2014-Nov-11 02:27N 47°41' W 122°24'0 0.0
2014-Nov-11 01:31N 47°41' W 122°24'0 0.0
2014-Nov-11 01:21N 47°41' W 122°24'0 0.0
2014-Nov-11 00:31N 47°41' W 122°24'0 0.0
2014-Nov-11 00:21N 47°41' W 122°24'0 0.0
2014-Nov-10 23:31N 47°41' W 122°24'0 0.0
2014-Nov-10 23:21N 47°41' W 122°24'0 0.0
2014-Nov-10 22:31N 47°41' W 122°24'0 0.0
2014-Nov-10 22:21N 47°41' W 122°24'0 0.0
2014-Nov-10 21:31N 47°41' W 122°24'0 0.0
2014-Nov-10 21:22N 47°41' W 122°24'0 0.0
2014-Nov-10 20:31N 47°41' W 122°24'0 0.0
2014-Nov-10 20:22N 47°41' W 122°24'6 7.2
2014-Nov-10 19:33N 47°35' W 122°28'1 8.2
2014-Nov-10 19:26N 47°35' W 122°28'2 2.2
2014-Nov-10 18:31N 47°33' W 122°29'0 0.0
2014-Nov-10 17:31N 47°33' W 122°29'0 0.0
2014-Nov-10 16:31N 47°33' W 122°29'0 0.0
2014-Nov-10 15:31N 47°33' W 122°29'0 0.0
2014-Nov-10 14:31N 47°33' W 122°29'0 0.0
2014-Nov-10 13:31N 47°33' W 122°29'0 0.0
2014-Nov-10 12:31N 47°33' W 122°29'0 0.0
2014-Nov-10 11:31N 47°33' W 122°29'0 0.0
2014-Nov-10 10:31N 47°33' W 122°29'0 0.0
2014-Nov-10 09:31N 47°33' W 122°29'0 0.0
2014-Nov-10 08:31N 47°33' W 122°29'0 0.0
2014-Nov-10 07:31N 47°33' W 122°29'0 0.0
2014-Nov-10 06:22N 47°33' W 122°29'0 0.0
2014-Nov-10 05:31N 47°33' W 122°29'0 0.0
2014-Nov-10 04:25N 47°33' W 122°29'0 0.0
2014-Nov-10 03:19N 47°33' W 122°29'0 0.0
2014-Nov-10 02:28N 47°33' W 122°29'0 0.0
2014-Nov-10 01:25N 47°33' W 122°29'0 0.0
2014-Nov-10 00:25N 47°33' W 122°29'0 0.0
2014-Nov-09 23:10N 47°33' W 122°29'0 0.0
2014-Nov-09 22:28N 47°33' W 122°29'4 3.9
2014-Nov-09 21:32N 47°29' W 122°30'9 8.2
2014-Nov-09 20:24N 47°20' W 122°30'4 4.7
2014-Nov-09 19:31N 47°24' W 122°28'0 0.0
2014-Nov-09 18:31N 47°24' W 122°28'0 0.0
2014-Nov-09 17:31N 47°24' W 122°28'0 0.0
2014-Nov-09 16:31N 47°24' W 122°28'0 0.0
2014-Nov-09 15:31N 47°24' W 122°28'0 0.0
2014-Nov-09 14:25N 47°24' W 122°28'0 0.0
2014-Nov-09 13:31N 47°24' W 122°28'0 0.0
2014-Nov-09 12:31N 47°24' W 122°28'0 0.0
2014-Nov-09 11:31N 47°24' W 122°28'0 0.0
2014-Nov-09 10:31N 47°24' W 122°28'0 0.0
2014-Nov-09 09:31N 47°24' W 122°28'0 0.0
2014-Nov-09 08:31N 47°24' W 122°28'0 0.0
2014-Nov-09 07:31N 47°24' W 122°28'0 0.0
2014-Nov-09 06:31N 47°24' W 122°28'0 0.0
2014-Nov-09 05:31N 47°24' W 122°28'0 0.0
2014-Nov-09 04:31N 47°24' W 122°28'0 0.0
2014-Nov-09 03:31N 47°24' W 122°28'0 0.0
2014-Nov-09 02:31N 47°24' W 122°28'0 0.0
2014-Nov-09 01:31N 47°24' W 122°28'0 0.0
2014-Nov-09 00:31N 47°24' W 122°28'0 0.0
2014-Nov-08 23:31N 47°24' W 122°28'0 0.0
2014-Nov-08 22:31N 47°24' W 122°28'0 0.0
2014-Nov-08 21:31N 47°24' W 122°28'0 0.0
2014-Nov-08 20:31N 47°24' W 122°28'0 0.0
2014-Nov-08 19:31N 47°24' W 122°28'0 0.0
2014-Nov-08 18:31N 47°24' W 122°28'0 0.0
2014-Nov-08 17:31N 47°24' W 122°28'0 0.0
2014-Nov-08 16:31N 47°24' W 122°28'0 0.0
2014-Nov-08 15:31N 47°24' W 122°28'0 0.0
2014-Nov-08 14:31N 47°24' W 122°28'0 0.0
2014-Nov-08 13:31N 47°24' W 122°28'0 0.0
2014-Nov-08 12:31N 47°24' W 122°28'0 0.0
2014-Nov-08 11:31N 47°24' W 122°28'0 0.0
2014-Nov-08 10:31N 47°24' W 122°28'0 0.0
2014-Nov-08 09:31N 47°24' W 122°28'0 0.0
2014-Nov-08 08:28N 47°24' W 122°28'0 0.0
2014-Nov-08 07:31N 47°24' W 122°28'0 0.0
2014-Nov-08 06:28N 47°24' W 122°28'0 0.0
2014-Nov-08 05:31N 47°24' W 122°28'0 0.0
2014-Nov-08 04:31N 47°24' W 122°28'0 0.0
2014-Nov-08 03:31N 47°24' W 122°28'0 0.0
2014-Nov-08 02:31N 47°24' W 122°28'0 0.0
2014-Nov-08 01:31N 47°24' W 122°28'0 0.0
2014-Nov-08 00:31N 47°24' W 122°28'0 0.0
2014-Nov-07 23:31N 47°24' W 122°28'0 0.0
2014-Nov-07 22:31N 47°24' W 122°28'0 0.0
2014-Nov-07 21:31N 47°24' W 122°28'4 3.8
2014-Nov-07 20:27N 47°21' W 122°32'8 8.3
2014-Nov-07 19:32N 47°28' W 122°31'5 4.6
2014-Nov-07 18:31N 47°33' W 122°29'0 0.0
2014-Nov-07 17:31N 47°33' W 122°29'0 0.1
2014-Nov-07 16:32N 47°33' W 122°29'6 7.9
2014-Nov-07 15:48N 47°38' W 122°27'2 7.8
2014-Nov-07 15:33N 47°40' W 122°26'0 0.0
2014-Nov-07 15:33N 47°40' W 122°26'  

Dump ship's entire track history